Time;durP1;ratioP1;P1;durP2;ratioP2;P2;SDS_P1;SDS_P2;PMS_P1;PMS_P2;Temp;Humidity;BMP_temperature;BMP_pressure;BME280_temperature;BME280_humidity;BME280_pressure;Samples;Min_cycle;Max_cycle;Signal;HPM_P1;HPM_P2
2020/12/22 00:01:22;;;;;;;0.20;0.20;;;;;;;11.85;89.03;99579.84;5077446;28;20052;-71
2020/12/22 00:03:49;;;;;;;0.20;0.13;;;;;;;11.91;89.06;99579.38;5077548;28;20052;-72
2020/12/22 00:06:22;;;;;;;0.20;0.20;;;;;;;11.92;88.80;99580.22;5076364;28;20079;-72
2020/12/22 00:08:50;;;;;;;1.95;0.32;;;;;;;11.81;88.98;99579.22;5077344;28;20056;-73
2020/12/22 00:11:16;;;;;;;0.10;0.10;;;;;;;11.84;88.96;99579.94;5076424;28;20349;-72
2020/12/22 00:13:43;;;;;;;0.15;0.10;;;;;;;11.86;89.10;99580.66;5077297;28;20060;-72
2020/12/22 00:16:09;;;;;;;0.10;0.10;;;;;;;11.87;89.35;99577.06;5077279;28;20082;-72
2020/12/22 00:18:35;;;;;;;0.47;0.20;;;;;;;11.91;89.20;99589.19;5076903;28;20056;-71
2020/12/22 00:21:02;;;;;;;0.52;0.15;;;;;;;11.98;89.12;99574.38;5077145;28;20055;-71
2020/12/22 00:23:29;;;;;;;0.40;0.20;;;;;;;11.94;89.34;99551.56;5076896;28;20342;-72
2020/12/22 00:25:55;;;;;;;0.32;0.22;;;;;;;11.98;88.81;99558.34;5075774;28;20059;-73
2020/12/22 00:28:21;;;;;;;0.88;0.30;;;;;;;12.00;88.89;99559.09;5075881;28;20057;-73
2020/12/22 00:30:49;;;;;;;0.40;0.20;;;;;;;11.93;88.98;99561.38;5076733;28;20078;-72
2020/12/22 00:33:16;;;;;;;0.35;0.20;;;;;;;11.92;88.73;99558.81;5075757;28;20445;-72
2020/12/22 00:35:42;;;;;;;0.65;0.10;;;;;;;11.89;89.23;99564.41;5076586;28;20052;-72
2020/12/22 00:38:08;;;;;;;0.40;0.17;;;;;;;12.04;88.84;99578.47;5076621;28;20048;-73
2020/12/22 00:40:35;;;;;;;0.10;0.10;;;;;;;12.07;88.65;99571.06;5075507;28;20105;-71
2020/12/22 00:43:02;;;;;;;0.57;0.20;;;;;;;12.00;88.78;99574.28;5076743;28;20060;-71
2020/12/22 00:45:30;;;;;;;0.35;0.15;;;;;;;12.09;88.63;99597.66;5075754;28;20102;-71
2020/12/22 00:47:57;;;;;;;0.10;0.10;;;;;;;12.04;88.90;99595.34;5076486;28;20049;-72
2020/12/22 00:50:23;;;;;;;0.43;0.20;;;;;;;12.08;88.54;99595.97;5075652;28;20400;-71
2020/12/22 00:52:49;;;;;;;0.10;0.10;;;;;;;12.04;88.81;99590.00;5076454;28;20082;-72
2020/12/22 00:55:16;;;;;;;0.30;0.20;;;;;;;12.16;88.55;99596.22;5076546;28;20044;-71
2020/12/22 00:57:42;;;;;;;0.50;0.30;;;;;;;12.24;88.38;99616.22;5074884;28;20056;-72
2020/12/22 01:00:12;;;;;;;0.55;0.30;;;;;;;12.17;88.70;99597.09;5076344;28;20044;-73
2020/12/22 01:02:39;;;;;;;0.65;0.30;;;;;;;12.11;89.12;99579.72;5077245;28;20071;-72
2020/12/22 01:05:05;;;;;;;0.65;0.20;;;;;;;12.14;89.18;99597.34;5075718;28;20360;-72
2020/12/22 01:07:32;;;;;;;3.65;0.43;;;;;;;12.14;89.50;99600.84;5076786;28;20056;-72
2020/12/22 01:09:58;;;;;;;0.93;0.30;;;;;;;12.11;89.56;99605.59;5076527;28;20411;-72
2020/12/22 01:12:24;;;;;;;1.48;0.60;;;;;;;12.09;89.80;99605.69;5077066;28;20055;-73
2020/12/22 01:14:50;;;;;;;1.70;0.47;;;;;;;12.07;90.50;99602.28;5077483;28;20052;-73
2020/12/22 01:17:17;;;;;;;0.40;0.30;;;;;;;11.93;91.16;99597.97;5075704;28;20393;-72
2020/12/22 01:19:44;;;;;;;5.28;0.98;;;;;;;11.95;91.93;99596.03;5077573;28;20052;-72
2020/12/22 01:22:10;;;;;;;1.45;0.50;;;;;;;11.89;92.62;99591.16;5076222;28;20059;-72
2020/12/22 01:24:36;;;;;;;0.70;0.40;;;;;;;11.82;92.59;99586.25;5075050;28;20102;-71
2020/12/22 01:27:02;;;;;;;1.77;0.55;;;;;;;11.79;93.25;99593.66;5076399;28;20048;-72
2020/12/22 01:29:29;;;;;;;2.25;0.65;;;;;;;11.75;93.46;99601.06;5076419;28;20135;-71
2020/12/22 01:31:55;;;;;;;1.13;0.60;;;;;;;11.73;93.92;99605.69;5076335;28;20056;-71
2020/12/22 01:34:21;;;;;;;2.90;0.70;;;;;;;11.60;94.21;99597.72;5076363;28;20098;-73
2020/12/22 01:36:47;;;;;;;2.40;0.70;;;;;;;11.71;94.26;99610.28;5075882;28;20057;-72
2020/12/22 01:39:14;;;;;;;2.13;0.70;;;;;;;11.73;94.23;99605.69;5075792;28;20040;-72
2020/12/22 01:41:40;;;;;;;0.77;0.60;;;;;;;11.75;94.30;99597.53;5075684;28;20048;-72
2020/12/22 01:44:09;;;;;;;3.20;0.75;;;;;;;11.72;94.44;99614.66;5075613;28;20492;-72
2020/12/22 01:46:42;;;;;;;0.77;0.52;;;;;;;11.74;94.55;99610.06;5075201;28;20126;-72
2020/12/22 01:49:15;;;;;;;1.50;0.60;;;;;;;11.71;95.16;99623.63;5075351;28;20747;-72
2020/12/22 01:51:47;;;;;;;3.17;0.52;;;;;;;11.70;95.15;99624.59;5075317;28;20055;-72
2020/12/22 01:54:14;;;;;;;3.55;0.90;;;;;;;11.68;95.38;99622.03;5075237;28;20548;-71
2020/12/22 01:56:42;;;;;;;1.50;0.50;;;;;;;11.71;95.14;99620.97;5075467;28;20052;-71
2020/12/22 01:59:08;;;;;;;1.35;0.55;;;;;;;11.74;95.00;99615.41;5075280;28;20434;-71
2020/12/22 02:01:35;;;;;;;2.20;0.70;;;;;;;11.66;95.06;99623.16;5075525;28;20059;-71
2020/12/22 02:04:03;;;;;;;0.60;0.52;;;;;;;11.58;94.85;99596.13;5075430;28;20056;-72
2020/12/22 02:06:30;;;;;;;1.25;0.50;;;;;;;11.77;94.66;99609.81;5075134;28;20106;-72
2020/12/22 02:08:57;;;;;;;4.45;0.60;;;;;;;11.78;94.89;99618.69;5056537;28;20428;-72
2020/12/22 02:11:31;;;;;;;2.63;0.65;;;;;;;11.73;95.15;99621.72;5073998;28;20060;-72
2020/12/22 02:13:59;;;;;;;2.70;0.60;;;;;;;11.75;95.09;99611.75;5075262;28;20078;-72
2020/12/22 02:16:26;;;;;;;1.85;0.57;;;;;;;11.71;95.24;99631.66;5074912;28;20064;-71
2020/12/22 02:18:54;;;;;;;2.88;0.80;;;;;;;11.71;95.96;99631.66;5075276;28;20052;-72
2020/12/22 02:21:21;;;;;;;2.65;0.60;;;;;;;11.71;95.93;99631.66;5075231;28;20105;-72
2020/12/22 02:23:49;;;;;;;2.17;0.60;;;;;;;11.69;95.62;99609.53;5074813;28;20442;-71
2020/12/22 02:26:16;;;;;;;3.33;0.95;;;;;;;11.79;95.03;99628.41;5074077;28;20055;-71
2020/12/22 02:28:42;;;;;;;3.38;0.70;;;;;;;11.79;95.34;99610.56;5074055;28;20130;-72
2020/12/22 02:31:08;;;;;;;2.55;0.75;;;;;;;11.84;94.68;99622.72;5075206;28;20059;-72
2020/12/22 02:33:34;;;;;;;4.30;1.15;;;;;;;11.80;95.39;99638.16;5074643;28;20052;-72
2020/12/22 02:36:01;;;;;;;1.60;0.43;;;;;;;11.80;95.26;99640.81;5074083;28;20049;-72
2020/12/22 02:38:27;;;;;;;1.75;0.60;;;;;;;11.80;95.66;99639.00;5074736;28;20064;-72
2020/12/22 02:40:53;;;;;;;3.13;0.63;;;;;;;11.86;95.04;99643.03;5075089;28;20075;-72
2020/12/22 02:43:19;;;;;;;1.88;0.75;;;;;;;11.86;95.02;99644.84;5075049;28;20048;-71
2020/12/22 02:45:46;;;;;;;0.55;0.40;;;;;;;11.86;94.81;99637.69;5073960;28;20131;-71
2020/12/22 02:48:12;;;;;;;2.53;0.70;;;;;;;11.84;94.66;99622.72;5074853;28;20060;-72
2020/12/22 02:50:39;;;;;;;2.22;0.57;;;;;;;11.93;94.40;99646.13;5074880;28;20071;-72
2020/12/22 02:53:06;;;;;;;3.92;0.60;;;;;;;11.97;94.11;99647.56;5073893;28;20063;-71
2020/12/22 02:55:34;;;;;;;1.67;0.90;;;;;;;11.97;94.26;99636.88;5074661;28;20437;-73
2020/12/22 02:58:00;;;;;;;0.98;0.45;;;;;;;11.91;94.46;99642.69;5074702;28;20106;-71
2020/12/22 03:00:26;;;;;;;1.35;0.50;;;;;;;11.94;94.68;99645.16;5074719;28;20040;-72
2020/12/22 03:02:55;;;;;;;1.80;0.93;;;;;;;11.97;94.49;99636.88;5073103;28;20060;-72
2020/12/22 03:05:21;;;;;;;1.10;0.60;;;;;;;11.92;94.35;99617.66;5074879;28;20057;-72
2020/12/22 03:07:47;;;;;;;1.63;0.60;;;;;;;12.01;94.25;99629.47;5074702;28;20342;-72
2020/12/22 03:10:15;;;;;;;3.03;0.55;;;;;;;12.04;93.50;99622.09;5074601;28;20084;-71
2020/12/22 03:12:43;;;;;;;1.65;0.60;;;;;;;12.08;93.25;99623.59;5074456;28;20448;-71
2020/12/22 03:15:10;;;;;;;1.10;0.38;;;;;;;11.93;93.56;99608.69;5074359;28;20052;-71
2020/12/22 03:17:39;;;;;;;2.47;0.47;;;;;;;12.08;93.26;99628.94;5074095;28;20057;-71
2020/12/22 03:20:12;;;;;;;0.47;0.30;;;;;;;12.11;92.64;99643.91;5075307;28;20060;-71
2020/12/22 03:22:41;;;;;;;0.70;0.30;;;;;;;12.21;92.30;99614.63;5078494;28;20052;-71
2020/12/22 03:25:08;;;;;;;1.08;0.38;;;;;;;12.18;92.67;99642.47;5078002;28;20052;-71
2020/12/22 03:27:35;;;;;;;1.58;0.40;;;;;;;12.21;92.29;99646.72;5078200;28;20653;-72
2020/12/22 03:30:03;;;;;;;1.13;0.40;;;;;;;12.26;92.25;99631.16;5078208;28;20110;-72
2020/12/22 03:32:29;;;;;;;1.23;0.40;;;;;;;12.18;91.50;99612.16;5078304;28;20102;-71
2020/12/22 03:34:55;;;;;;;3.17;0.40;;;;;;;12.32;91.88;99644.06;5077814;28;20110;-72
2020/12/22 03:37:21;;;;;;;1.00;0.30;;;;;;;12.39;91.51;99624.88;5077726;28;20056;-72
2020/12/22 03:39:49;;;;;;;0.20;0.20;;;;;;;12.36;91.36;99640.19;5077554;28;20056;-72
2020/12/22 03:42:17;;;;;;;0.52;0.22;;;;;;;12.34;92.05;99651.97;5076729;28;20052;-72
2020/12/22 03:44:44;;;;;;;0.35;0.20;;;;;;;12.32;92.19;99660.13;5077665;28;20052;-72
2020/12/22 03:47:11;;;;;;;0.50;0.40;;;;;;;12.41;91.33;99650.53;5076735;28;20044;-71
2020/12/22 03:49:37;;;;;;;1.35;0.30;;;;;;;12.39;91.58;99654.31;5077541;28;20045;-71
2020/12/22 03:52:03;;;;;;;0.85;0.20;;;;;;;12.39;91.64;99649.81;5077768;28;20056;-71
2020/12/22 03:54:30;;;;;;;1.50;0.25;;;;;;;12.41;92.01;99660.41;5077492;28;20049;-72
2020/12/22 03:56:56;;;;;;;0.20;0.13;;;;;;;12.35;92.47;99646.53;5077463;28;20433;-71
2020/12/22 03:59:23;;;;;;;1.35;0.30;;;;;;;12.38;92.28;99671.34;5077686;28;20052;-71
2020/12/22 04:01:50;;;;;;;1.38;0.20;;;;;;;12.35;92.73;99669.75;5077843;28;20052;-71
2020/12/22 04:04:19;;;;;;;1.10;0.17;;;;;;;12.30;92.28;99666.56;5077440;28;20056;-71
2020/12/22 04:06:45;;;;;;;1.48;0.30;;;;;;;12.37;92.11;99665.16;5077406;28;20489;-71
2020/12/22 04:09:11;;;;;;;1.77;0.30;;;;;;;12.32;92.62;99668.16;5077555;28;20052;-71
2020/12/22 04:11:39;;;;;;;2.13;0.30;;;;;;;12.33;92.95;99659.16;5077189;28;20393;-71
2020/12/22 04:14:10;;;;;;;0.15;0.10;;;;;;;12.27;93.72;99656.09;5077618;28;20057;-71
2020/12/22 04:16:37;;;;;;;0.20;0.13;;;;;;;12.22;93.82;99662.66;5076346;28;20083;-71
2020/12/22 04:19:05;;;;;;;1.85;0.40;;;;;;;12.18;94.14;99663.00;5077237;28;20053;-71
2020/12/22 04:21:32;;;;;;;1.83;0.22;;;;;;;12.12;94.44;99642.06;5076059;28;20067;-71
2020/12/22 04:23:58;;;;;;;1.73;0.32;;;;;;;12.16;94.44;99668.47;5076789;28;20135;-71
2020/12/22 04:26:25;;;;;;;1.00;0.13;;;;;;;12.09;95.09;99654.72;5077282;28;20384;-71
2020/12/22 04:28:52;;;;;;;0.43;0.20;;;;;;;12.14;95.06;99650.84;5076916;28;20048;-71
2020/12/22 04:31:21;;;;;;;1.33;0.30;;;;;;;12.09;95.60;99668.09;5076357;28;20090;-71
2020/12/22 04:33:54;;;;;;;1.20;0.20;;;;;;;12.12;95.00;99666.13;5076831;28;20044;-71
2020/12/22 04:36:23;;;;;;;0.70;0.25;;;;;;;12.20;94.14;99664.59;5076669;28;20385;-71
2020/12/22 04:38:50;;;;;;;0.73;0.20;;;;;;;12.13;94.50;99668.72;5076918;28;20048;-71
2020/12/22 04:41:18;;;;;;;0.40;0.15;;;;;;;12.21;94.23;99679.66;5077113;28;20109;-71
2020/12/22 04:43:46;;;;;;;0.52;0.30;;;;;;;12.19;94.37;99664.69;5077174;28;20064;-71
2020/12/22 04:46:17;;;;;;;1.20;0.30;;;;;;;12.12;95.45;99669.69;5076656;28;20063;-71
2020/12/22 04:48:50;;;;;;;1.30;0.25;;;;;;;12.06;95.42;99665.66;5076831;28;20056;-71
2020/12/22 04:51:17;;;;;;;2.10;0.30;;;;;;;12.12;95.44;99660.78;5076698;28;20052;-71
2020/12/22 04:54:06;;;;;;;1.00;0.20;;;;;;;12.15;95.24;99671.28;5076009;28;20070;-72
2020/12/22 04:56:33;;;;;;;0.52;0.20;;;;;;;12.09;95.76;99668.09;5075611;28;20057;-72
2020/12/22 04:58:59;;;;;;;0.20;0.20;;;;;;;12.04;96.35;99683.63;5076665;28;20044;-71
2020/12/22 05:01:26;;;;;;;0.60;0.20;;;;;;;12.11;94.80;99659.09;5076554;28;20102;-71
2020/12/22 05:03:53;;;;;;;0.65;0.10;;;;;;;12.15;95.06;99676.63;5076491;28;20049;-71
2020/12/22 05:06:19;;;;;;;0.25;0.03;;;;;;;12.09;94.86;99678.78;5076067;28;20445;-71
2020/12/22 05:08:45;;;;;;;0.98;0.10;;;;;;;12.16;95.09;99689.84;5075359;28;20064;-71
2020/12/22 05:11:16;;;;;;;1.45;0.13;;;;;;;12.14;94.87;99694.47;5075985;28;20052;-71
2020/12/22 05:13:43;;;;;;;0.20;0.13;;;;;;;12.18;95.42;99701.31;5075994;28;20106;-70
2020/12/22 05:16:10;;;;;;;0.47;0.10;;;;;;;12.16;95.88;99700.56;5074814;28;20094;-70
2020/12/22 05:18:36;;;;;;;1.00;0.17;;;;;;;12.12;95.75;99700.91;5075855;28;20437;-70
2020/12/22 05:21:18;;;;;;;1.23;0.10;;;;;;;12.10;96.04;99714.44;5076247;28;20044;-70
2020/12/22 05:23:47;;;;;;;0.45;0.10;;;;;;;12.12;95.94;99703.59;5075805;28;20063;-71
2020/12/22 05:26:20;;;;;;;1.27;0.20;;;;;;;12.15;95.50;99698.03;5075980;28;20098;-70
2020/12/22 05:28:46;;;;;;;0.13;0.10;;;;;;;12.11;95.69;99702.75;5074666;28;20052;-71
2020/12/22 05:31:13;;;;;;;1.08;0.17;;;;;;;12.14;95.45;99712.38;5076027;28;20060;-71
2020/12/22 05:33:46;;;;;;;0.47;0.30;;;;;;;12.09;95.94;99715.38;5076023;28;20067;-70
2020/12/22 05:36:13;;;;;;;0.10;0.10;;;;;;;12.06;96.17;99727.19;5075574;28;20490;-70
2020/12/22 05:38:43;;;;;;;0.38;0.10;;;;;;;12.11;95.10;99704.56;5075598;28;20127;-71
2020/12/22 05:41:09;;;;;;;0.67;0.10;;;;;;;12.16;95.18;99721.97;5075548;28;20048;-71
2020/12/22 05:43:37;;;;;;;0.63;0.20;;;;;;;12.18;95.55;99724.53;5075548;28;20609;-71
2020/12/22 05:46:03;;;;;;;0.38;0.10;;;;;;;12.05;95.79;99704.03;5075781;28;20059;-72
2020/12/22 05:48:29;;;;;;;0.52;0.20;;;;;;;12.12;95.93;99733.88;5074988;28;20059;-76
2020/12/22 05:51:01;;;;;;;0.32;0.17;;;;;;;12.14;95.83;99723.06;5068046;28;20052;-73
2020/12/22 05:53:28;;;;;;;0.28;0.15;;;;;;;12.13;95.29;99716.00;5077148;28;20044;-68
2020/12/22 05:55:54;;;;;;;4.47;0.20;;;;;;;12.04;95.70;99701.50;5074958;28;20053;-69
2020/12/22 05:58:30;;;;;;;0.25;0.13;;;;;;;12.13;95.35;99726.69;5074228;28;20056;-71
2020/12/22 06:00:56;;;;;;;1.40;0.30;;;;;;;12.10;96.22;99727.81;5075627;28;20106;-69
2020/12/22 06:03:22;;;;;;;1.73;0.20;;;;;;;12.13;95.87;99729.38;5075279;28;20048;-69
2020/12/22 06:05:48;;;;;;;0.15;0.15;;;;;;;12.11;96.19;99744.69;5075533;28;20123;-71
2020/12/22 06:08:18;;;;;;;0.88;0.20;;;;;;;12.12;96.10;99741.91;5075081;28;20430;-70
2020/12/22 06:10:45;;;;;;;0.73;0.20;;;;;;;12.07;96.09;99741.38;5073239;28;20048;-71
2020/12/22 06:13:12;;;;;;;0.98;0.32;;;;;;;12.07;95.90;99750.28;5073304;28;20385;-72
2020/12/22 06:15:39;;;;;;;0.75;0.20;;;;;;;12.15;95.12;99752.38;5073537;28;20052;-69
2020/12/22 06:18:09;;;;;;;1.33;0.30;;;;;;;12.03;94.62;99731.84;5073169;28;20078;-71
2020/12/22 06:20:35;;;;;;;0.57;0.13;;;;;;;12.16;94.97;99767.44;5073156;28;20049;-69
2020/12/22 06:23:07;;;;;;;0.60;0.35;;;;;;;12.19;94.93;99779.75;5073269;28;20080;-68
2020/12/22 06:25:36;;;;;;;1.50;0.50;;;;;;;12.19;95.23;99764.56;5052657;28;20044;-68
2020/12/22 06:28:03;;;;;;;0.73;0.37;;;;;;;12.09;94.78;99768.88;5055560;28;20124;-69
2020/12/22 06:30:38;;;;;;;2.03;0.40;;;;;;;12.13;95.72;99772.16;5053870;28;20052;-68
2020/12/22 06:33:23;;;;;;;0.85;0.32;;;;;;;12.11;96.03;99788.34;5054948;28;20049;-70
2020/12/22 06:36:07;;;;;;;1.17;0.30;;;;;;;12.08;95.90;99768.03;5053999;28;20048;-71
2020/12/22 06:38:55;;;;;;;1.83;0.57;;;;;;;12.12;95.81;99791.88;5055103;28;20045;-69
2020/12/22 06:41:40;;;;;;;2.05;0.30;;;;;;;12.14;95.71;99793.47;5054746;28;20057;-69
2020/12/22 06:44:15;;;;;;;0.83;0.40;;;;;;;12.13;94.97;99789.09;5054856;28;20049;-71
2020/12/22 06:46:44;;;;;;;1.75;0.30;;;;;;;12.13;95.15;99786.41;5065096;28;20278;-70
2020/12/22 06:49:11;;;;;;;2.58;0.63;;;;;;;12.07;95.30;99786.88;5074934;28;20067;-71
2020/12/22 06:51:40;;;;;;;3.35;0.68;;;;;;;12.14;94.83;99788.13;5074688;28;20049;-70
2020/12/22 06:54:13;;;;;;;2.08;0.30;;;;;;;12.16;94.72;99796.88;5074754;28;20059;-69
2020/12/22 06:56:47;;;;;;;1.05;0.50;;;;;;;12.14;94.24;99793.47;5078557;28;20044;-71
2020/12/22 06:59:47;;;;;;;4.90;0.50;;;;;;;12.27;93.36;99801.47;5079306;28;20044;-73
2020/12/22 07:02:35;;;;;;;1.92;0.47;;;;;;;12.17;93.68;99795.94;5077831;28;20052;-72
2020/12/22 07:05:06;;;;;;;2.05;0.43;;;;;;;12.22;93.27;99793.75;5078820;28;20056;-70
2020/12/22 07:07:57;;;;;;;1.17;0.32;;;;;;;12.20;93.41;99789.50;5077886;28;20051;-73
2020/12/22 07:10:27;;;;;;;2.17;0.40;;;;;;;12.22;93.00;99809.81;5077144;28;20052;-72
2020/12/22 07:12:59;;;;;;;1.08;0.47;;;;;;;12.24;93.50;99815.03;5077969;28;20052;-70
2020/12/22 07:15:45;;;;;;;1.17;0.40;;;;;;;12.20;93.90;99821.59;5078511;28;20048;-72
2020/12/22 07:18:19;;;;;;;1.13;0.70;;;;;;;12.24;93.07;99800.84;5076268;28;20092;-70
2020/12/22 07:20:47;;;;;;;1.83;0.40;;;;;;;12.23;93.45;99808.00;5078347;28;20341;-71
2020/12/22 07:23:15;;;;;;;0.88;0.35;;;;;;;12.26;93.75;99807.75;5077815;28;20060;-73
2020/12/22 07:25:42;;;;;;;1.83;1.00;;;;;;;12.28;93.10;99803.16;5078243;28;20106;-73
2020/12/22 07:28:14;;;;;;;2.17;0.60;;;;;;;12.16;94.06;99820.94;5078114;28;20045;-72
2020/12/22 07:30:40;;;;;;;4.28;0.57;;;;;;;12.22;93.55;99822.34;5077943;28;20044;-69
2020/12/22 07:33:06;;;;;;;1.08;0.30;;;;;;;12.13;93.35;99813.16;5076956;28;20052;-71
2020/12/22 07:35:33;;;;;;;1.95;0.57;;;;;;;12.16;93.45;99828.97;5077856;28;20106;-70
2020/12/22 07:38:06;;;;;;;1.65;0.40;;;;;;;12.24;92.59;99836.47;5076486;28;20052;-71
2020/12/22 07:40:36;;;;;;;1.23;0.38;;;;;;;12.24;92.59;99831.09;5077821;28;20036;-72
2020/12/22 07:43:04;;;;;;;1.38;0.38;;;;;;;12.11;92.33;99803.53;5076771;28;20053;-71
2020/12/22 07:45:30;;;;;;;2.53;0.32;;;;;;;12.31;91.79;99837.72;5077595;28;20102;-71
2020/12/22 07:47:56;;;;;;;2.67;0.47;;;;;;;12.23;90.78;99808.00;5076377;28;20056;-71
2020/12/22 07:50:22;;;;;;;0.55;0.38;;;;;;;12.39;91.21;99844.31;5077620;28;20040;-73
2020/12/22 07:53:00;;;;;;;2.17;0.80;;;;;;;12.45;90.85;99854.56;5077168;28;20128;-72
2020/12/22 07:55:36;;;;;;;2.38;0.40;;;;;;;12.35;91.03;99831.19;5075526;28;20056;-71
2020/12/22 07:58:03;;;;;;;1.23;0.40;;;;;;;12.35;91.53;99863.28;5075264;28;20044;-71
2020/12/22 08:00:31;;;;;;;1.98;0.50;;;;;;;12.35;91.58;99863.28;5076530;28;20041;-71
2020/12/22 08:03:11;;;;;;;1.65;0.57;;;;;;;12.33;91.54;99854.50;5076678;28;20055;-71
2020/12/22 08:05:37;;;;;;;2.10;0.60;;;;;;;12.39;91.58;99868.41;5077116;28;20052;-72
2020/12/22 08:08:04;;;;;;;2.20;0.60;;;;;;;12.39;90.82;99877.31;5077368;28;20098;-71
2020/12/22 08:10:30;;;;;;;1.70;0.60;;;;;;;12.52;89.97;99889.78;5076982;28;20040;-71
2020/12/22 08:12:58;;;;;;;2.28;0.60;;;;;;;12.52;88.99;99884.44;5076968;28;20059;-72
2020/12/22 08:15:27;;;;;;;2.28;0.85;;;;;;;12.53;89.36;99886.97;5076873;28;20055;-73
2020/12/22 08:17:56;;;;;;;1.08;0.60;;;;;;;12.54;89.52;99888.72;5076265;28;20079;-73
2020/12/22 08:20:23;;;;;;;0.63;0.30;;;;;;;12.50;89.86;99895.25;5074561;28;20389;-72
2020/12/22 08:22:50;;;;;;;2.67;0.50;;;;;;;12.49;90.02;99906.91;5075876;28;20056;-71
2020/12/22 08:25:16;;;;;;;1.48;0.50;;;;;;;12.51;89.55;99896.94;5076363;28;20053;-72
2020/12/22 08:27:42;;;;;;;0.63;0.63;;;;;;;12.48;89.48;99906.06;5075145;28;20346;-73
2020/12/22 08:30:20;;;;;;;1.48;0.50;;;;;;;12.47;90.34;99914.19;5076280;28;20050;-72
2020/12/22 08:32:47;;;;;;;0.68;0.40;;;;;;;12.40;90.90;99904.91;5074387;28;20123;-70
2020/12/22 08:35:19;;;;;;;3.40;0.40;;;;;;;12.44;90.52;99915.28;5057256;28;20071;-72
2020/12/22 08:37:45;;;;;;;0.93;0.38;;;;;;;12.48;90.41;99923.97;5074265;28;20109;-70
2020/12/22 08:40:29;;;;;;;1.35;0.43;;;;;;;12.46;90.92;99915.16;5076426;28;20079;-71
2020/12/22 08:42:55;;;;;;;3.13;0.40;;;;;;;12.41;91.00;99899.44;5075226;28;20048;-72
2020/12/22 08:45:21;;;;;;;1.27;0.40;;;;;;;12.42;92.31;99916.38;5075565;28;20052;-72
2020/12/22 08:47:54;;;;;;;1.45;0.30;;;;;;;12.28;92.58;99910.19;5072924;28;20456;-74
2020/12/22 08:50:21;;;;;;;3.70;0.63;;;;;;;12.31;92.99;99915.31;5076051;28;20426;-72
2020/12/22 08:52:48;;;;;;;1.90;0.40;;;;;;;12.26;93.04;99909.44;5082938;28;20124;-73
2020/12/22 08:55:15;;;;;;;3.08;0.30;;;;;;;12.29;92.68;99913.72;5072419;28;20060;-72
2020/12/22 08:57:42;;;;;;;2.42;0.35;;;;;;;12.24;92.39;99918.56;5072338;28;20058;-75
2020/12/22 09:00:13;;;;;;;2.00;0.43;;;;;;;12.28;91.64;99926.25;5074025;28;20086;-73
2020/12/22 09:02:41;;;;;;;1.30;0.50;;;;;;;12.27;91.16;99921.88;5075052;28;20045;-73
2020/12/22 09:05:13;;;;;;;3.00;0.63;;;;;;;12.39;91.11;99922.81;5075490;28;20053;-72
2020/12/22 09:07:39;;;;;;;2.40;0.45;;;;;;;12.41;90.23;99930.72;5075980;28;20044;-73
2020/12/22 09:10:07;;;;;;;0.45;0.32;;;;;;;12.45;89.12;99929.50;5074935;28;20101;-71
2020/12/22 09:12:34;;;;;;;0.80;0.30;;;;;;;12.48;89.16;99950.72;5075316;28;20055;-71
2020/12/22 09:15:00;;;;;;;2.63;0.40;;;;;;;12.45;89.00;99946.44;5072178;28;20716;-72
2020/12/22 09:17:31;;;;;;;1.60;0.50;;;;;;;12.48;88.54;99937.34;5074214;28;20064;-73
2020/12/22 09:19:57;;;;;;;3.83;0.77;;;;;;;12.50;88.51;99965.69;5071275;28;20048;-72
2020/12/22 09:22:26;;;;;;;2.13;0.60;;;;;;;12.59;87.85;99976.72;5075450;28;20113;-71
2020/12/22 09:24:55;;;;;;;0.85;0.60;;;;;;;12.56;87.72;99952.81;5073465;28;20118;-70
2020/12/22 09:27:38;;;;;;;1.23;0.57;;;;;;;12.59;88.21;99977.56;5073369;28;20326;-71
2020/12/22 09:30:07;;;;;;;1.88;0.45;;;;;;;12.61;87.84;99978.31;5069901;28;20105;-71
2020/12/22 09:32:41;;;;;;;3.63;0.90;;;;;;;12.60;87.75;99983.78;5073482;28;20438;-72
2020/12/22 09:35:07;;;;;;;1.83;0.50;;;;;;;12.60;87.64;99984.59;5074739;28;20389;-72
2020/12/22 09:37:33;;;;;;;1.95;0.50;;;;;;;12.61;87.92;99964.94;5073815;28;20354;-73
2020/12/22 09:40:00;;;;;;;1.42;0.57;;;;;;;12.62;87.83;99981.81;5076214;28;20106;-70
2020/12/22 09:42:27;;;;;;;5.00;0.65;;;;;;;12.59;88.56;99990.09;5074668;28;20052;-75
2020/12/22 09:44:54;;;;;;;4.68;1.05;;;;;;;12.57;89.22;100000.91;5075273;28;20162;-76
2020/12/22 09:47:21;;;;;;;3.22;1.00;;;;;;;12.49;90.05;99995.25;5075158;28;20049;-74
2020/12/22 09:49:47;;;;;;;2.10;0.70;;;;;;;12.42;89.99;100000.19;5074116;28;20090;-73
2020/12/22 09:52:13;;;;;;;2.65;0.80;;;;;;;12.17;90.64;99975.19;5075443;28;20422;-82
2020/12/22 09:54:40;;;;;;;4.22;1.02;;;;;;;12.28;90.30;99998.50;5075690;28;20052;-75
2020/12/22 09:57:06;;;;;;;2.30;1.20;;;;;;;12.35;90.34;100014.97;5074393;28;20048;-74
2020/12/22 09:59:33;;;;;;;4.32;1.30;;;;;;;12.21;91.05;100003.41;5075102;28;20041;-80
2020/12/22 10:01:59;;;;;;;3.78;1.38;;;;;;;12.25;90.94;100024.63;5075003;28;20430;-77
2020/12/22 10:04:26;;;;;;;5.78;1.42;;;;;;;12.23;91.75;100011.34;5074107;28;20059;-76
2020/12/22 10:06:52;;;;;;;4.03;1.63;;;;;;;12.13;93.74;100019.16;5074281;28;20056;-76
2020/12/22 10:09:18;;;;;;;3.08;1.80;;;;;;;12.03;94.29;100015.38;5074473;28;20040;-75
2020/12/22 10:11:45;;;;;;;3.80;1.80;;;;;;;11.99;95.08;100019.25;5074167;28;20063;-75
2020/12/22 10:14:12;;;;;;;4.15;1.90;;;;;;;11.96;95.49;100028.31;5073871;28;20040;-76
2020/12/22 10:16:38;;;;;;;5.40;2.10;;;;;;;11.91;95.91;100025.09;5073083;28;20048;-77
2020/12/22 10:19:04;;;;;;;4.38;2.00;;;;;;;11.87;95.70;100019.13;5074235;28;20377;-79
2020/12/22 10:21:30;;;;;;;3.28;1.75;;;;;;;11.89;95.69;100014.53;5069701;28;20097;-75
2020/12/22 10:23:59;;;;;;;2.50;1.65;;;;;;;11.81;95.77;99998.13;5069684;28;20053;-76
2020/12/22 10:26:27;;;;;;;3.95;1.20;;;;;;;11.98;94.95;100023.72;5074265;28;20407;-75
2020/12/22 10:28:53;;;;;;;2.97;1.40;;;;;;;11.92;95.40;100019.66;5066908;28;20047;-75
2020/12/22 10:31:22;;;;;;;2.67;1.40;;;;;;;11.92;95.01;100017.00;5068483;28;20036;-77
2020/12/22 10:33:48;;;;;;;3.83;1.23;;;;;;;11.88;95.21;100020.81;5064566;28;20044;-76
2020/12/22 10:36:16;;;;;;;3.33;1.42;;;;;;;11.96;95.09;100031.00;5074597;28;20047;-76
2020/12/22 10:38:52;;;;;;;4.43;1.45;;;;;;;11.87;95.85;100020.94;5074705;28;20060;-78
2020/12/22 10:41:19;;;;;;;3.33;1.27;;;;;;;11.89;95.72;100032.38;5073339;28;20342;-74
2020/12/22 10:43:47;;;;;;;2.78;1.60;;;;;;;11.86;96.79;100040.59;5072789;28;20052;-77
2020/12/22 10:46:14;;;;;;;4.18;1.67;;;;;;;11.82;96.67;100043.50;5072535;28;20049;-79
2020/12/22 10:48:42;;;;;;;3.47;1.80;;;;;;;11.72;97.12;100034.38;5074327;28;20098;-76
2020/12/22 10:51:09;;;;;;;7.30;2.20;;;;;;;11.77;97.48;100050.97;5056726;28;20045;-75
2020/12/22 10:53:36;;;;;;;3.95;1.92;;;;;;;11.78;97.83;100038.47;5074295;28;20423;-74
2020/12/22 10:56:10;;;;;;;4.80;2.00;;;;;;;11.85;97.73;100044.25;5074209;28;20084;-73
2020/12/22 10:58:37;;;;;;;5.28;1.98;;;;;;;11.82;97.60;100059.56;5071674;28;20064;-74
2020/12/22 11:01:04;;;;;;;2.88;1.70;;;;;;;11.82;97.51;100062.22;5074353;28;20041;-75
2020/12/22 11:03:31;;;;;;;2.28;1.45;;;;;;;11.71;97.29;100043.38;5073462;28;20131;-75
2020/12/22 11:06:39;;;;;;;3.35;1.40;;;;;;;11.76;97.70;100054.63;5074144;28;20099;-78
2020/12/22 11:08:49;;;;;;;2.92;1.30;;;;;;;11.77;97.76;100069.69;5067596;28;20361;-75
2020/12/22 11:11:16;;;;;;;3.45;1.60;;;;;;;11.73;97.73;100073.56;5074310;28;20475;-74
2020/12/22 11:13:42;;;;;;;3.05;1.67;;;;;;;11.78;97.67;100068.72;5071249;28;20059;-77
2020/12/22 11:16:10;;;;;;;3.03;1.63;;;;;;;11.81;97.80;100073.88;5074267;28;20052;-75
2020/12/22 11:18:38;;;;;;;4.05;2.00;;;;;;;11.87;97.74;100067.25;5074736;28;20071;-74
2020/12/22 11:21:12;;;;;;;6.05;2.03;;;;;;;11.84;97.40;100063.94;5073941;28;20358;-75
2020/12/22 11:23:46;;;;;;;3.72;1.70;;;;;;;11.85;97.80;100065.63;5072625;28;20052;-76
2020/12/22 11:26:18;;;;;;;4.32;1.60;;;;;;;11.82;98.06;100064.03;5071168;28;20044;-76
2020/12/22 11:28:45;;;;;;;3.53;2.10;;;;;;;11.78;98.23;100063.38;5074499;28;20055;-75
2020/12/22 11:31:12;;;;;;;3.83;1.88;;;;;;;11.64;98.20;100058.97;5073597;28;20174;-76
2020/12/22 11:33:40;;;;;;;3.08;1.50;;;;;;;11.75;97.82;100076.97;5072376;28;20051;-76
2020/12/22 11:36:10;;;;;;;4.07;1.42;;;;;;;11.70;97.21;100067.56;5070700;28;20059;-76
2020/12/22 11:38:37;;;;;;;3.47;1.60;;;;;;;11.69;97.32;100069.34;5070810;28;20063;-76